createdAt,value
2019-05-28T00:00:02.303Z,16.00
2019-05-28T00:02:27.146Z,16.00
2019-05-28T00:04:55.599Z,16.00
2019-05-28T00:07:24.289Z,15.90
2019-05-28T00:09:55.385Z,15.90
2019-05-28T00:12:23.814Z,15.90
2019-05-28T00:14:52.257Z,15.80
2019-05-28T00:17:20.693Z,15.80
2019-05-28T00:19:49.154Z,15.80
2019-05-28T00:22:17.615Z,15.80
2019-05-28T00:24:46.302Z,15.80
2019-05-28T00:27:14.747Z,15.80
2019-05-28T00:29:43.246Z,15.80
2019-05-28T00:32:11.678Z,15.80
2019-05-28T00:34:40.151Z,15.70
2019-05-28T00:37:08.642Z,15.80
2019-05-28T00:39:37.088Z,15.70
2019-05-28T00:42:05.787Z,15.80
2019-05-28T00:44:34.550Z,15.80
2019-05-28T00:47:03.025Z,15.70
2019-05-28T00:49:31.515Z,15.70
2019-05-28T00:52:00.017Z,15.60
2019-05-28T00:54:28.445Z,15.60
2019-05-28T00:56:57.446Z,15.60
2019-05-28T00:59:27.095Z,15.70
2019-05-28T01:01:55.790Z,15.60
2019-05-28T01:04:24.237Z,15.70
2019-05-28T01:06:54.663Z,15.60
2019-05-28T01:09:23.150Z,15.50
2019-05-28T01:11:51.661Z,15.60
2019-05-28T01:14:20.089Z,15.50
2019-05-28T01:16:48.534Z,15.50
2019-05-28T01:19:16.953Z,15.40
2019-05-28T01:21:45.411Z,15.40
2019-05-28T01:24:13.853Z,15.50
2019-05-28T01:26:42.561Z,15.50
2019-05-28T01:29:11.057Z,15.50
2019-05-28T01:31:39.517Z,15.40
2019-05-28T01:34:07.979Z,15.40
2019-05-28T01:36:36.422Z,15.30
2019-05-28T01:39:06.498Z,15.20
2019-05-28T01:41:35.020Z,15.20
2019-05-28T01:44:03.542Z,15.30
2019-05-28T01:46:31.989Z,15.30
2019-05-28T01:49:00.422Z,15.20
2019-05-28T01:51:28.882Z,15.10
2019-05-28T01:53:57.372Z,15.10
2019-05-28T01:56:25.829Z,15.10
2019-05-28T01:58:54.535Z,15.00
2019-05-28T02:01:23.230Z,15.00
2019-05-28T02:03:51.665Z,15.10
2019-05-28T02:06:20.130Z,15.10
2019-05-28T02:08:48.624Z,15.00
2019-05-28T02:11:17.065Z,15.00
2019-05-28T02:13:45.597Z,15.00
2019-05-28T02:16:14.028Z,15.00
2019-05-28T02:18:42.558Z,15.00
2019-05-28T02:21:11.061Z,15.10
2019-05-28T02:23:39.494Z,15.10
2019-05-28T02:26:07.930Z,15.00
2019-05-28T02:28:36.379Z,15.00
2019-05-28T02:31:05.103Z,14.80
2019-05-28T02:33:33.598Z,15.00
2019-05-28T02:36:02.357Z,14.90
2019-05-28T02:38:30.809Z,15.00
2019-05-28T02:40:59.497Z,14.90
2019-05-28T02:43:27.961Z,14.90
2019-05-28T02:45:56.412Z,14.80
2019-05-28T02:48:24.837Z,14.80
2019-05-28T02:51:01.258Z,14.90
2019-05-28T02:53:31.275Z,14.80
2019-05-28T02:56:00.067Z,14.90
2019-05-28T02:58:31.637Z,14.90
2019-05-28T03:01:01.329Z,14.90
2019-05-28T03:03:30.990Z,14.90
2019-05-28T03:05:59.617Z,15.00
2019-05-28T03:08:32.050Z,15.00
2019-05-28T03:11:03.807Z,14.90
2019-05-28T03:13:32.485Z,14.80
2019-05-28T03:16:02.990Z,14.60
2019-05-28T03:18:34.333Z,14.60
2019-05-28T03:21:03.605Z,14.60
2019-05-28T03:23:35.062Z,14.70
2019-05-28T03:26:03.672Z,14.80
2019-05-28T03:28:32.177Z,14.90
2019-05-28T03:31:00.955Z,14.80
2019-05-28T03:33:29.966Z,14.60
2019-05-28T03:35:59.553Z,14.60
2019-05-28T03:38:28.216Z,14.80
2019-05-28T03:40:56.905Z,14.80
2019-05-28T03:43:25.337Z,14.80
2019-05-28T03:45:53.789Z,14.70
2019-05-28T03:48:22.466Z,14.80
2019-05-28T03:50:50.908Z,14.80
2019-05-28T03:53:19.402Z,14.80
2019-05-28T03:55:47.845Z,14.80
2019-05-28T03:58:16.301Z,14.70
2019-05-28T04:00:44.731Z,14.70
2019-05-28T04:03:13.169Z,14.60
2019-05-28T04:05:41.628Z,14.80
2019-05-28T04:08:10.097Z,14.70
2019-05-28T04:10:38.892Z,14.70
2019-05-28T04:13:07.309Z,14.60
2019-05-28T04:15:35.769Z,14.60
2019-05-28T04:18:04.711Z,14.50
2019-05-28T04:20:33.468Z,14.60
2019-05-28T04:23:03.554Z,14.70
2019-05-28T04:25:32.020Z,14.70
2019-05-28T04:28:00.513Z,14.60
2019-05-28T04:30:28.942Z,14.40
2019-05-28T04:32:57.623Z,14.40
2019-05-28T04:35:26.078Z,14.60
2019-05-28T04:37:54.530Z,14.80
2019-05-28T04:40:23.214Z,14.70
2019-05-28T04:42:51.915Z,14.80
2019-05-28T04:45:20.739Z,14.70
2019-05-28T04:47:49.174Z,14.70
2019-05-28T04:50:17.866Z,14.80
2019-05-28T04:52:46.626Z,14.80
2019-05-28T04:55:15.146Z,14.70
2019-05-28T04:57:43.844Z,14.90
2019-05-28T05:00:12.497Z,15.00
2019-05-28T05:02:57.777Z,14.80
2019-05-28T05:05:12.210Z,15.10
2019-05-28T05:07:40.676Z,15.40
2019-05-28T05:10:09.513Z,15.00
2019-05-28T05:12:37.970Z,14.90
2019-05-28T05:15:07.067Z,15.00
2019-05-28T05:17:35.601Z,15.10
2019-05-28T05:20:06.576Z,15.20
2019-05-28T05:22:35.027Z,15.00
2019-05-28T05:25:05.300Z,14.90
2019-05-28T05:27:34.009Z,14.90
2019-05-28T05:30:02.532Z,14.80
2019-05-28T05:32:30.978Z,14.90
2019-05-28T05:34:59.434Z,15.30
2019-05-28T05:37:27.950Z,15.70
2019-05-28T05:39:56.383Z,16.10
2019-05-28T05:42:25.094Z,16.20
2019-05-28T05:44:53.550Z,15.90
2019-05-28T05:47:22.015Z,15.90
2019-05-28T05:49:50.514Z,15.60
2019-05-28T05:52:18.961Z,15.50
2019-05-28T05:54:47.409Z,15.80
2019-05-28T05:57:15.925Z,15.40
2019-05-28T05:59:44.621Z,15.00
2019-05-28T06:02:13.082Z,15.00
2019-05-28T06:04:41.537Z,15.00
2019-05-28T06:07:09.976Z,15.10
2019-05-28T06:09:38.429Z,15.20
2019-05-28T06:12:06.867Z,15.90
2019-05-28T06:14:37.860Z,16.50
2019-05-28T06:17:05.720Z,16.40
2019-05-28T06:19:34.501Z,16.20
2019-05-28T06:22:03.262Z,16.40
2019-05-28T06:24:31.730Z,16.20
2019-05-28T06:27:00.405Z,15.90
2019-05-28T06:29:28.866Z,16.10
2019-05-28T06:31:57.305Z,16.20
2019-05-28T06:34:25.762Z,15.80
2019-05-28T06:36:54.183Z,15.90
2019-05-28T06:39:22.636Z,15.90
2019-05-28T06:41:51.085Z,16.00
2019-05-28T06:44:19.585Z,15.50
2019-05-28T06:46:48.304Z,15.40
2019-05-28T06:49:16.753Z,15.30
2019-05-28T06:51:45.453Z,15.30
2019-05-28T06:54:13.874Z,15.50
2019-05-28T06:56:42.325Z,16.10
2019-05-28T06:59:10.789Z,15.80
2019-05-28T07:01:39.551Z,16.10
2019-05-28T07:04:14.053Z,16.20
2019-05-28T07:06:38.165Z,16.30
2019-05-28T07:09:06.893Z,16.80
2019-05-28T07:11:35.576Z,16.60
2019-05-28T07:14:04.163Z,16.60
2019-05-28T07:16:32.644Z,17.00
2019-05-28T07:19:01.400Z,17.10
2019-05-28T07:21:29.830Z,17.50
2019-05-28T07:24:05.054Z,17.50
2019-05-28T07:26:31.559Z,17.40
2019-05-28T07:29:00.287Z,17.30
2019-05-28T07:31:28.742Z,17.00
2019-05-28T07:33:57.445Z,16.90
2019-05-28T07:36:26.162Z,16.70
2019-05-28T07:38:54.606Z,16.50
2019-05-28T07:41:23.045Z,16.20
2019-05-28T07:43:51.743Z,16.60
2019-05-28T07:46:20.454Z,16.20
2019-05-28T07:48:48.874Z,16.30
2019-05-28T07:51:17.471Z,16.40
2019-05-28T07:53:45.936Z,16.50
2019-05-28T07:56:14.628Z,16.30
2019-05-28T07:58:43.070Z,16.40
2019-05-28T08:01:11.504Z,16.80
2019-05-28T08:03:39.962Z,17.20
2019-05-28T08:06:08.465Z,17.10
2019-05-28T08:08:36.966Z,17.20
2019-05-28T08:11:05.729Z,17.10
2019-05-28T08:13:40.860Z,17.10
2019-05-28T08:16:17.709Z,17.40
2019-05-28T08:18:34.602Z,16.90
2019-05-28T08:21:03.123Z,16.70
2019-05-28T08:23:31.540Z,17.20
2019-05-28T08:26:01.931Z,17.40
2019-05-28T08:28:30.204Z,17.40
2019-05-28T08:31:14.024Z,17.20
2019-05-28T08:33:29.159Z,16.80
2019-05-28T08:35:58.237Z,17.30
2019-05-28T08:38:26.665Z,17.00
2019-05-28T08:40:55.130Z,16.30
2019-05-28T08:43:23.890Z,16.20
2019-05-28T08:45:52.317Z,16.10
2019-05-28T08:48:20.786Z,16.80
2019-05-28T08:50:49.334Z,16.50
2019-05-28T08:53:18.018Z,17.10
2019-05-28T08:55:46.441Z,17.50
2019-05-28T08:58:15.145Z,17.50
2019-05-28T09:00:44.536Z,17.40
2019-05-28T09:03:13.150Z,17.30
2019-05-28T09:05:41.650Z,17.00
2019-05-28T09:08:10.450Z,16.80
2019-05-28T09:10:38.884Z,17.00
2019-05-28T09:13:07.323Z,16.70
2019-05-28T09:15:35.927Z,17.30
2019-05-28T09:18:04.888Z,17.40
2019-05-28T09:20:33.526Z,17.50
2019-05-28T09:23:01.985Z,17.60
2019-05-28T09:25:30.679Z,17.00
2019-05-28T09:27:59.394Z,16.30
2019-05-28T09:30:28.342Z,16.20
2019-05-28T09:32:56.889Z,16.10
2019-05-28T09:35:41.177Z,16.20
2019-05-28T09:37:55.806Z,16.80
2019-05-28T09:40:24.473Z,17.10
2019-05-28T09:42:53.175Z,17.30
2019-05-28T09:45:23.276Z,17.30
2019-05-28T09:47:55.061Z,17.20
2019-05-28T09:50:30.587Z,17.20
2019-05-28T09:52:54.896Z,17.20
2019-05-28T09:55:22.807Z,17.20
2019-05-28T09:57:51.301Z,16.80
2019-05-28T10:00:22.327Z,16.70
2019-05-28T10:02:51.590Z,17.00
2019-05-28T10:05:21.608Z,16.70
2019-05-28T10:07:50.561Z,16.30
2019-05-28T10:10:19.665Z,16.10
2019-05-28T10:12:48.266Z,16.70
2019-05-28T10:15:18.516Z,17.60
2019-05-28T10:17:46.946Z,17.70
2019-05-28T10:20:17.543Z,17.60
2019-05-28T10:22:46.217Z,17.80
2019-05-28T10:25:14.930Z,18.00
2019-05-28T10:27:59.158Z,17.80
2019-05-28T10:30:14.261Z,17.70
2019-05-28T10:32:42.702Z,17.70
2019-05-28T10:35:11.803Z,17.60
2019-05-28T10:37:40.347Z,17.60
2019-05-28T10:40:11.522Z,17.50
2019-05-28T10:42:40.221Z,17.40
2019-05-28T10:45:10.513Z,17.30
2019-05-28T10:47:38.941Z,17.10
2019-05-28T10:50:08.234Z,17.60
2019-05-28T10:52:36.697Z,17.90
2019-05-28T10:55:07.472Z,17.60
2019-05-28T10:57:36.390Z,17.60
2019-05-28T11:00:08.886Z,17.60
2019-05-28T11:02:37.416Z,17.40
2019-05-28T11:05:07.945Z,17.70
2019-05-28T11:07:36.806Z,17.60
2019-05-28T11:10:22.537Z,17.50
2019-05-28T11:12:37.834Z,17.60
2019-05-28T11:15:07.870Z,17.80
2019-05-28T11:17:36.417Z,17.30
2019-05-28T11:20:13.028Z,17.50
2019-05-28T11:22:41.554Z,17.20
2019-05-28T11:25:11.688Z,17.60
2019-05-28T11:27:40.386Z,17.70
2019-05-28T11:30:10.624Z,17.90
2019-05-28T11:32:39.120Z,17.90
2019-05-28T11:35:08.290Z,17.80
2019-05-28T11:37:36.775Z,17.80
2019-05-28T11:40:11.022Z,17.60
2019-05-28T11:42:40.187Z,17.80
2019-05-28T11:45:09.963Z,17.40
2019-05-28T11:47:38.628Z,17.40
2019-05-28T11:50:10.790Z,17.40
2019-05-28T11:52:39.265Z,17.40
2019-05-28T11:55:13.248Z,17.40
2019-05-28T11:57:41.704Z,17.30
2019-05-28T12:00:11.882Z,17.30
2019-05-28T12:02:40.361Z,17.40
2019-05-28T12:05:09.837Z,17.50
2019-05-28T12:07:38.323Z,17.40
2019-05-28T12:10:07.843Z,17.30
2019-05-28T12:12:37.968Z,17.30
2019-05-28T12:15:08.671Z,17.60
2019-05-28T12:17:42.793Z,17.70
2019-05-28T12:20:09.247Z,17.60
2019-05-28T12:22:37.702Z,17.30
2019-05-28T12:25:07.374Z,17.20
2019-05-28T12:27:35.870Z,17.30
2019-05-28T12:30:06.748Z,17.40
2019-05-28T12:32:35.250Z,17.50
2019-05-28T12:35:05.074Z,17.60
2019-05-28T12:37:47.006Z,17.30
2019-05-28T12:40:05.433Z,17.10
2019-05-28T12:42:33.880Z,17.20
2019-05-28T12:45:09.466Z,17.10
2019-05-28T12:47:32.635Z,17.10
2019-05-28T12:50:17.959Z,17.20
2019-05-28T12:52:31.249Z,17.20
2019-05-28T12:54:59.757Z,17.40
2019-05-28T12:57:28.459Z,17.30
2019-05-28T12:59:56.918Z,17.30
2019-05-28T13:02:25.349Z,17.50
2019-05-28T13:04:53.793Z,17.50
2019-05-28T13:07:22.247Z,17.40
2019-05-28T13:09:50.969Z,17.50
2019-05-28T13:12:19.739Z,17.30
2019-05-28T13:14:48.386Z,17.20
2019-05-28T13:17:16.842Z,17.30
2019-05-28T13:19:45.270Z,17.20
2019-05-28T13:22:13.729Z,17.20
2019-05-28T13:24:42.159Z,17.30
2019-05-28T13:27:18.190Z,17.20
2019-05-28T13:29:40.803Z,17.20
2019-05-28T13:32:09.274Z,17.30
2019-05-28T13:34:37.693Z,17.40
2019-05-28T13:37:06.159Z,17.50
2019-05-28T13:39:34.593Z,17.40
2019-05-28T13:42:03.055Z,17.50
2019-05-28T13:44:31.488Z,17.60
2019-05-28T13:46:59.948Z,17.40
2019-05-28T13:49:28.443Z,17.60
2019-05-28T13:52:10.954Z,17.60
2019-05-28T13:54:27.312Z,17.40
2019-05-28T13:56:55.833Z,17.30
2019-05-28T13:59:24.611Z,17.30
2019-05-28T14:01:53.338Z,17.20
2019-05-28T14:04:22.027Z,17.40
2019-05-28T14:06:50.582Z,17.40
2019-05-28T14:09:19.132Z,17.50
2019-05-28T14:11:47.842Z,17.40
2019-05-28T14:14:16.272Z,17.30
2019-05-28T14:16:44.765Z,17.30
2019-05-28T14:19:13.254Z,17.50
2019-05-28T14:21:41.721Z,17.60
2019-05-28T14:24:10.193Z,17.50
2019-05-28T14:26:38.646Z,17.40
2019-05-28T14:29:07.078Z,17.50
2019-05-28T14:31:35.518Z,17.60
2019-05-28T14:34:04.017Z,17.60
2019-05-28T14:36:32.461Z,17.70
2019-05-28T14:39:03.707Z,17.60
2019-05-28T14:41:31.052Z,17.70
2019-05-28T14:43:59.500Z,17.80
2019-05-28T14:46:28.186Z,17.80
2019-05-28T14:48:56.638Z,17.80
2019-05-28T14:51:25.070Z,17.70
2019-05-28T14:53:53.498Z,17.60
2019-05-28T14:56:22.176Z,17.50
2019-05-28T14:58:50.626Z,17.40
2019-05-28T15:01:19.326Z,17.70
2019-05-28T15:03:47.943Z,17.70
2019-05-28T15:06:16.389Z,17.60
2019-05-28T15:08:44.814Z,17.50
2019-05-28T15:11:13.301Z,17.30
2019-05-28T15:13:41.735Z,17.50
2019-05-28T15:16:10.437Z,17.40
2019-05-28T15:18:38.862Z,17.40
2019-05-28T15:21:07.313Z,17.40
2019-05-28T15:23:36.022Z,17.40
2019-05-28T15:26:04.604Z,17.40
2019-05-28T15:28:33.115Z,17.30
2019-05-28T15:31:01.608Z,17.50
2019-05-28T15:33:30.314Z,17.50
2019-05-28T15:35:59.064Z,17.40
2019-05-28T15:38:27.568Z,17.50
2019-05-28T15:40:56.325Z,17.30
2019-05-28T15:43:24.753Z,17.30
2019-05-28T15:45:53.445Z,17.40
2019-05-28T15:48:22.270Z,17.30
2019-05-28T15:50:50.794Z,17.40
2019-05-28T15:53:19.228Z,17.40
2019-05-28T15:55:47.685Z,17.40
2019-05-28T15:58:16.105Z,17.40
2019-05-28T16:00:44.794Z,17.40
2019-05-28T16:03:13.242Z,17.40
2019-05-28T16:05:41.817Z,17.40
2019-05-28T16:08:10.280Z,17.60
2019-05-28T16:10:38.707Z,17.60
2019-05-28T16:13:07.140Z,17.70
2019-05-28T16:15:35.655Z,17.60
2019-05-28T16:18:04.468Z,17.70
2019-05-28T16:20:32.994Z,17.60
2019-05-28T16:23:02.226Z,17.60
2019-05-28T16:25:30.761Z,17.40
2019-05-28T16:27:59.201Z,17.50
2019-05-28T16:30:28.192Z,17.50
2019-05-28T16:32:56.620Z,17.40
2019-05-28T16:35:25.069Z,17.70
2019-05-28T16:37:53.512Z,17.90
2019-05-28T16:40:21.959Z,17.70
2019-05-28T16:42:50.449Z,17.80
2019-05-28T16:45:19.633Z,17.50
2019-05-28T16:47:48.089Z,17.50
2019-05-28T16:50:16.652Z,17.70
2019-05-28T16:52:45.105Z,17.60
2019-05-28T16:55:13.681Z,17.90
2019-05-28T16:57:42.145Z,18.20
2019-05-28T17:00:11.134Z,18.20
2019-05-28T17:02:39.572Z,18.20
2019-05-28T17:05:08.529Z,18.10
2019-05-28T17:07:37.028Z,17.80
2019-05-28T17:10:08.454Z,17.80
2019-05-28T17:12:37.226Z,17.60
2019-05-28T17:15:09.406Z,17.50
2019-05-28T17:17:37.853Z,17.60
2019-05-28T17:20:08.299Z,17.40
2019-05-28T17:22:36.877Z,17.60
2019-05-28T17:25:11.184Z,17.40
2019-05-28T17:27:37.357Z,17.40
2019-05-28T17:30:17.972Z,17.80
2019-05-28T17:32:37.545Z,18.00
2019-05-28T17:35:07.641Z,17.90
2019-05-28T17:37:36.099Z,17.80
2019-05-28T17:40:06.221Z,17.70
2019-05-28T17:42:34.830Z,17.80
2019-05-28T17:45:04.036Z,17.90
2019-05-28T17:47:41.781Z,17.90
2019-05-28T17:50:03.123Z,17.90
2019-05-28T17:52:31.645Z,17.60
2019-05-28T17:55:00.095Z,17.40
2019-05-28T17:57:28.796Z,17.20
2019-05-28T17:59:57.473Z,17.40
2019-05-28T18:02:26.166Z,17.40
2019-05-28T18:04:54.613Z,17.50
2019-05-28T18:07:23.156Z,17.70
2019-05-28T18:09:51.888Z,17.60
2019-05-28T18:12:20.595Z,17.60
2019-05-28T18:14:49.026Z,17.50
2019-05-28T18:17:17.453Z,17.60
2019-05-28T18:19:45.916Z,17.30
2019-05-28T18:22:14.359Z,17.30
2019-05-28T18:24:42.772Z,17.40
2019-05-28T18:27:11.204Z,17.70
2019-05-28T18:29:40.388Z,17.80
2019-05-28T18:32:08.907Z,17.60
2019-05-28T18:34:37.347Z,17.70
2019-05-28T18:37:05.773Z,17.50
2019-05-28T18:39:34.228Z,17.40
2019-05-28T18:42:02.667Z,17.60
2019-05-28T18:44:31.116Z,17.50
2019-05-28T18:46:59.546Z,17.60
2019-05-28T18:49:28.263Z,17.70
2019-05-28T18:51:56.728Z,17.90
2019-05-28T18:54:25.166Z,17.80
2019-05-28T18:56:53.937Z,17.20
2019-05-28T18:59:22.442Z,17.20
2019-05-28T19:01:51.221Z,17.20
2019-05-28T19:04:20.489Z,17.10
2019-05-28T19:06:49.142Z,17.20
2019-05-28T19:09:17.561Z,17.30
2019-05-28T19:11:46.251Z,17.30
2019-05-28T19:14:14.754Z,17.30
2019-05-28T19:16:43.262Z,17.20
2019-05-28T19:19:11.677Z,17.40
2019-05-28T19:21:40.465Z,17.20
2019-05-28T19:24:09.133Z,17.40
2019-05-28T19:26:37.595Z,17.40
2019-05-28T19:29:06.085Z,17.00
2019-05-28T19:31:35.025Z,17.40
2019-05-28T19:34:03.999Z,17.30
2019-05-28T19:36:32.815Z,17.40
2019-05-28T19:39:01.331Z,17.60
2019-05-28T19:41:29.785Z,17.50
2019-05-28T19:43:58.465Z,17.70
2019-05-28T19:46:26.920Z,17.60
2019-05-28T19:48:55.621Z,17.50
2019-05-28T19:51:24.289Z,17.40
2019-05-28T19:53:52.715Z,17.20
2019-05-28T19:56:21.161Z,16.90
2019-05-28T19:58:49.593Z,16.80
2019-05-28T20:01:18.042Z,17.40
2019-05-28T20:03:46.467Z,17.50
2019-05-28T20:06:15.209Z,17.30
2019-05-28T20:08:43.706Z,17.00
2019-05-28T20:11:12.150Z,17.10
2019-05-28T20:13:40.615Z,16.80
2019-05-28T20:16:09.375Z,16.80
2019-05-28T20:18:37.805Z,17.00
2019-05-28T20:21:06.274Z,16.70
2019-05-28T20:23:34.697Z,16.40
2019-05-28T20:26:03.123Z,16.40
2019-05-28T20:28:31.822Z,16.30
2019-05-28T20:31:00.244Z,16.80
2019-05-28T20:33:28.685Z,16.80
2019-05-28T20:35:57.126Z,16.60
2019-05-28T20:38:25.584Z,16.80
2019-05-28T20:40:54.024Z,16.70
2019-05-28T20:43:22.467Z,16.40
2019-05-28T20:45:50.972Z,16.70
2019-05-28T20:48:19.465Z,16.50
2019-05-28T20:50:47.893Z,16.50
2019-05-28T20:53:16.344Z,16.40
2019-05-28T20:55:44.783Z,16.60
2019-05-28T20:58:13.305Z,16.80
2019-05-28T21:00:41.731Z,16.70
2019-05-28T21:03:10.182Z,16.60
2019-05-28T21:05:38.875Z,16.50
2019-05-28T21:08:07.316Z,16.40
2019-05-28T21:10:35.752Z,16.30
2019-05-28T21:13:04.582Z,16.60
2019-05-28T21:15:33.268Z,16.40
2019-05-28T21:18:01.709Z,16.00
2019-05-28T21:20:30.234Z,16.70
2019-05-28T21:23:00.193Z,16.50
2019-05-28T21:25:28.863Z,16.90
2019-05-28T21:27:58.483Z,16.80
2019-05-28T21:30:26.976Z,16.40
2019-05-28T21:32:56.694Z,16.20
2019-05-28T21:35:25.260Z,16.00
2019-05-28T21:37:53.686Z,15.60
2019-05-28T21:40:22.955Z,15.60
2019-05-28T21:43:01.536Z,15.60
2019-05-28T21:45:22.724Z,16.00
2019-05-28T21:47:52.310Z,15.80
2019-05-28T21:50:20.876Z,16.10
2019-05-28T21:52:49.397Z,16.10
2019-05-28T21:55:18.154Z,16.40
2019-05-28T21:57:46.842Z,16.20
2019-05-28T22:00:46.149Z,15.80
2019-05-28T22:03:14.644Z,16.00
2019-05-28T22:05:43.104Z,16.60
2019-05-28T22:08:11.518Z,16.10
2019-05-28T22:10:39.946Z,16.30
2019-05-28T22:13:21.238Z,16.20
2019-05-28T22:15:38.577Z,16.40
2019-05-28T22:18:07.081Z,16.50
2019-05-28T22:20:35.512Z,16.20
2019-05-28T22:23:04.670Z,16.20
2019-05-28T22:25:33.149Z,16.40
2019-05-28T22:28:02.804Z,16.20
2019-05-28T22:30:31.557Z,16.50
2019-05-28T22:33:00.088Z,16.20
2019-05-28T22:35:28.556Z,15.90
2019-05-28T22:37:57.165Z,16.00
2019-05-28T22:40:25.953Z,16.10
2019-05-28T22:42:54.395Z,16.10
2019-05-28T22:45:23.078Z,16.10
2019-05-28T22:47:51.804Z,15.80
2019-05-28T22:50:23.139Z,16.00
2019-05-28T22:52:50.545Z,15.90
2019-05-28T22:55:19.454Z,15.30
2019-05-28T22:57:47.881Z,15.10
2019-05-28T23:00:16.569Z,15.20
2019-05-28T23:02:44.996Z,15.10
2019-05-28T23:05:13.630Z,14.80
2019-05-28T23:07:42.077Z,14.70
2019-05-28T23:10:10.914Z,14.70
2019-05-28T23:12:39.333Z,14.60
2019-05-28T23:15:10.447Z,14.50
2019-05-28T23:17:39.028Z,14.40
2019-05-28T23:20:08.910Z,14.30
2019-05-28T23:22:37.602Z,14.30
2019-05-28T23:25:07.820Z,14.40
2019-05-28T23:27:36.250Z,14.50
2019-05-28T23:30:18.839Z,14.50
2019-05-28T23:32:36.901Z,14.40
2019-05-28T23:35:08.732Z,14.70
2019-05-28T23:37:37.337Z,14.60
2019-05-28T23:40:07.446Z,14.50
2019-05-28T23:42:36.038Z,14.60
2019-05-28T23:45:07.498Z,14.50
2019-05-28T23:47:36.182Z,14.40
2019-05-28T23:50:06.693Z,14.40
2019-05-28T23:52:35.236Z,14.40
2019-05-28T23:55:05.641Z,14.30
2019-05-28T23:57:34.239Z,14.30
